Time;durP1;ratioP1;P1;durP2;ratioP2;P2;SDS_P1;SDS_P2;PMS_P1;PMS_P2;Temp;Humidity;BMP_temperature;BMP_pressure;BME280_temperature;BME280_humidity;BME280_pressure;Samples;Min_cycle;Max_cycle;Signal;HPM_P1;HPM_P2
2022/08/02 00:00:17;;;;;;;;;;;;;;;;;;5090238;28;20458;-65
2022/08/02 00:02:44;;;;;;;;;;;;;;;;;;5055915;28;19925;-64
2022/08/02 00:05:12;;;;;;;;;;;;;;;;;;5057538;28;20081;-65
2022/08/02 00:07:39;;;;;;;;;;;;;;;;;;5074737;28;19978;-65
2022/08/02 00:10:06;;;;;;;;;;;;;;;;;;5063867;28;19929;-65
2022/08/02 00:12:33;;;;;;;;;;;;;;;;;;5056112;28;19925;-66
2022/08/02 00:15:00;;;;;;;;;;;;;;;;;;5071280;28;20327;-66
2022/08/02 00:17:26;;;;;;;;;;;;;;;;;;5064599;28;19982;-65
2022/08/02 00:19:53;;;;;;;;;;;;;;;;;;5055521;28;19929;-64
2022/08/02 00:22:21;;;;;;;;;;;;;;;;;;5074619;28;19932;-66
2022/08/02 00:24:47;;;;;;;;;;;;;;;;;;5058743;28;19925;-64
2022/08/02 00:27:14;;;;;;;;;;;;;;;;;;5068653;28;19929;-64
2022/08/02 00:29:40;;;;;;;;;;;;;;;;;;5073925;28;19924;-65
2022/08/02 00:32:07;;;;;;;;;;;;;;;;;;5055421;28;19994;-64
2022/08/02 00:34:33;;;;;;;;;;;;;;;;;;5054610;28;19929;-63
2022/08/02 00:37:00;;;;;;;;;;;;;;;;;;5054307;28;19928;-66
2022/08/02 00:39:28;;;;;;;;;;;;;;;;;;5072202;28;19932;-65
2022/08/02 00:41:54;;;;;;;;;;;;;;;;;;5072480;28;19925;-66
2022/08/02 00:44:21;;;;;;;;;;;;;;;;;;5062976;28;19983;-65
2022/08/02 00:46:47;;;;;;;;;;;;;;;;;;5064443;28;19970;-65
2022/08/02 00:49:14;;;;;;;;;;;;;;;;;;5065321;28;19971;-65
2022/08/02 00:51:41;;;;;;;;;;;;;;;;;;5064693;28;19969;-66
2022/08/02 00:54:08;;;;;;;;;;;;;;;;;;5072127;28;19932;-65
2022/08/02 00:56:36;;;;;;;;;;;;;;;;;;5068095;28;19924;-64
2022/08/02 00:59:03;;;;;;;;;;;;;;;;;;5073627;28;20385;-65
2022/08/02 01:01:38;;;;;;;;;;;;;;;;;;5070009;28;20356;-65
2022/08/02 01:04:05;;;;;;;;;;;;;;;;;;5069168;28;19925;-65
2022/08/02 01:06:33;;;;;;;;;;;;;;;;;;5071219;28;19924;-65
2022/08/02 01:08:59;;;;;;;;;;;;;;;;;;5071353;28;20011;-67
2022/08/02 01:11:26;;;;;;;;;;;;;;;;;;5055577;28;19970;-66
2022/08/02 01:13:56;;;;;;;;;;;;;;;;;;5065272;28;20393;-64
2022/08/02 01:16:25;;;;;;;;;;;;;;;;;;5071991;28;19970;-65
2022/08/02 01:18:54;;;;;;;;;;;;;;;;;;5068333;28;19932;-66
2022/08/02 01:21:29;;;;;;;;;;;;;;;;;;5071662;28;20403;-64
2022/08/02 01:24:03;;;;;;;;;;;;;;;;;;5073368;28;19924;-65
2022/08/02 01:26:37;;;;;;;;;;;;;;;;;;5071615;28;19929;-66
2022/08/02 01:29:08;;;;;;;;;;;;;;;;;;5064174;28;19928;-66
2022/08/02 01:31:38;;;;;;;;;;;;;;;;;;5053441;28;19975;-65
2022/08/02 01:34:07;;;;;;;;;;;;;;;;;;5063611;28;19970;-65
2022/08/02 01:36:36;;;;;;;;;;;;;;;;;;5072950;28;20351;-64
2022/08/02 01:39:05;;;;;;;;;;;;;;;;;;5059156;28;19929;-65
2022/08/02 01:41:32;;;;;;;;;;;;;;;;;;5059039;28;19925;-64
2022/08/02 01:44:00;;;;;;;;;;;;;;;;;;5068957;28;19924;-65
2022/08/02 01:46:28;;;;;;;;;;;;;;;;;;5056508;28;19971;-65
2022/08/02 01:48:56;;;;;;;;;;;;;;;;;;5072067;28;19978;-65
2022/08/02 01:52:20;;;;;;;;;;;;;;;;;;5066728;28;19928;-66
2022/08/02 01:54:12;;;;;;;;;;;;;;;;;;5070848;28;19928;-64
2022/08/02 01:56:39;;;;;;;;;;;;;;;;;;5072724;28;19924;-64
2022/08/02 01:59:07;;;;;;;;;;;;;;;;;;5069009;28;19924;-65
2022/08/02 02:01:36;;;;;;;;;;;;;;;;;;5068012;28;19977;-65
2022/08/02 02:04:03;;;;;;;;;;;;;;;;;;5068040;28;19925;-64
2022/08/02 02:06:30;;;;;;;;;;;;;;;;;;5063647;28;20349;-64
2022/08/02 02:08:58;;;;;;;;;;;;;;;;;;5068434;28;19925;-64
2022/08/02 02:11:25;;;;;;;;;;;;;;;;;;5055827;28;19978;-64
2022/08/02 02:13:52;;;;;;;;;;;;;;;;;;5083687;28;20022;-64
2022/08/02 02:16:19;;;;;;;;;;;;;;;;;;5055647;28;19983;-64
2022/08/02 02:18:48;;;;;;;;;;;;;;;;;;5053361;28;19928;-66
2022/08/02 02:21:15;;;;;;;;;;;;;;;;;;5052088;28;20458;-64
2022/08/02 02:23:42;;;;;;;;;;;;;;;;;;5054576;28;19929;-65
2022/08/02 02:26:11;;;;;;;;;;;;;;;;;;5065495;28;19951;-65
2022/08/02 02:28:39;;;;;;;;;;;;;;;;;;5071899;28;19924;-64
2022/08/02 02:31:06;;;;;;;;;;;;;;;;;;5070860;28;19977;-65
2022/08/02 02:33:33;;;;;;;;;;;;;;;;;;5067860;28;19929;-66
2022/08/02 02:36:02;;;;;;;;;;;;;;;;;;5052359;28;19925;-65
2022/08/02 02:38:31;;;;;;;;;;;;;;;;;;5053418;28;19932;-67
2022/08/02 02:41:00;;;;;;;;;;;;;;;;;;5052050;28;19925;-64
2022/08/02 02:43:28;;;;;;;;;;;;;;;;;;5066137;28;19924;-64
2022/08/02 02:45:55;;;;;;;;;;;;;;;;;;5064708;28;19986;-64
2022/08/02 02:48:22;;;;;;;;;;;;;;;;;;5053069;28;19925;-64
2022/08/02 02:50:49;;;;;;;;;;;;;;;;;;5059150;28;19948;-65
2022/08/02 02:53:18;;;;;;;;;;;;;;;;;;5070396;28;20344;-63
2022/08/02 02:55:45;;;;;;;;;;;;;;;;;;5069893;28;20348;-63
2022/08/02 02:58:12;;;;;;;;;;;;;;;;;;5053942;28;19928;-64
2022/08/02 03:03:24;;;;;;;;;;;;;;;;;;5071419;28;19982;-64
2022/08/02 03:05:50;;;;;;;;;;;;;;;;;;5057029;28;19928;-63
2022/08/02 03:08:18;;;;;;;;;;;;;;;;;;5051925;28;19978;-62
2022/08/02 03:10:45;;;;;;;;;;;;;;;;;;5067546;28;20301;-64
2022/08/02 03:13:12;;;;;;;;;;;;;;;;;;5051780;28;19978;-65
2022/08/02 03:15:39;;;;;;;;;;;;;;;;;;5064662;28;19935;-63
2022/08/02 03:18:07;;;;;;;;;;;;;;;;;;5069645;28;19936;-64
2022/08/02 03:20:33;;;;;;;;;;;;;;;;;;5059126;28;20019;-64
2022/08/02 03:23:00;;;;;;;;;;;;;;;;;;5052661;28;20002;-64
2022/08/02 03:25:28;;;;;;;;;;;;;;;;;;5051621;28;19925;-64
2022/08/02 03:27:54;;;;;;;;;;;;;;;;;;5055515;28;19983;-64
2022/08/02 03:30:23;;;;;;;;;;;;;;;;;;5057304;28;19982;-65
2022/08/02 03:32:50;;;;;;;;;;;;;;;;;;5065641;28;20381;-64
2022/08/02 03:35:18;;;;;;;;;;;;;;;;;;5061594;28;19925;-65
2022/08/02 03:37:45;;;;;;;;;;;;;;;;;;5072698;28;19924;-64
2022/08/02 03:40:12;;;;;;;;;;;;;;;;;;5073979;28;20405;-63
2022/08/02 03:42:41;;;;;;;;;;;;;;;;;;5068531;28;20170;-64
2022/08/02 03:45:08;;;;;;;;;;;;;;;;;;5055027;28;20041;-65
2022/08/02 03:47:36;;;;;;;;;;;;;;;;;;5069736;28;19925;-64
2022/08/02 03:50:02;;;;;;;;;;;;;;;;;;5072661;28;19928;-63
2022/08/02 03:52:29;;;;;;;;;;;;;;;;;;5056382;28;19925;-63
2022/08/02 03:54:56;;;;;;;;;;;;;;;;;;5073278;28;19980;-65
2022/08/02 03:57:22;;;;;;;;;;;;;;;;;;5073245;28;19924;-65
2022/08/02 03:59:50;;;;;;;;;;;;;;;;;;5067012;28;19924;-66
2022/08/02 04:02:17;;;;;;;;;;;;;;;;;;5055892;28;20352;-65
2022/08/02 04:04:43;;;;;;;;;;;;;;;;;;5054903;28;19979;-64
2022/08/02 04:07:10;;;;;;;;;;;;;;;;;;5072876;28;19982;-64
2022/08/02 04:09:36;;;;;;;;;;;;;;;;;;5073780;28;19925;-65
2022/08/02 04:12:03;;;;;;;;;;;;;;;;;;5065761;28;20343;-63
2022/08/02 04:14:30;;;;;;;;;;;;;;;;;;5090049;28;19932;-64
2022/08/02 04:16:59;;;;;;;;;;;;;;;;;;5069762;28;19929;-63
2022/08/02 04:19:27;;;;;;;;;;;;;;;;;;5066976;28;19924;-64
2022/08/02 04:21:55;;;;;;;;;;;;;;;;;;5074261;28;19931;-64
2022/08/02 04:24:23;;;;;;;;;;;;;;;;;;5069587;28;19925;-64
2022/08/02 04:26:49;;;;;;;;;;;;;;;;;;5054732;28;19943;-63
2022/08/02 04:29:17;;;;;;;;;;;;;;;;;;5054264;28;19932;-64
2022/08/02 04:31:43;;;;;;;;;;;;;;;;;;5054740;28;19924;-64
2022/08/02 04:34:11;;;;;;;;;;;;;;;;;;5054077;28;19982;-64
2022/08/02 04:36:38;;;;;;;;;;;;;;;;;;5055297;28;20003;-65
2022/08/02 04:39:05;;;;;;;;;;;;;;;;;;5052257;28;19932;-64
2022/08/02 04:41:40;;;;;;;;;;;;;;;;;;5068370;28;20360;-64
2022/08/02 04:44:07;;;;;;;;;;;;;;;;;;5074227;28;19924;-63
2022/08/02 04:46:34;;;;;;;;;;;;;;;;;;5060126;28;19925;-63
2022/08/02 04:49:01;;;;;;;;;;;;;;;;;;5054087;28;19924;-65
2022/08/02 04:51:29;;;;;;;;;;;;;;;;;;5054026;28;19925;-64
2022/08/02 04:53:55;;;;;;;;;;;;;;;;;;5054518;28;19955;-65
2022/08/02 04:56:22;;;;;;;;;;;;;;;;;;5073529;28;19924;-64
2022/08/02 04:58:48;;;;;;;;;;;;;;;;;;5054371;28;20344;-63
2022/08/02 05:01:15;;;;;;;;;;;;;;;;;;5065886;28;19924;-61
2022/08/02 05:03:41;;;;;;;;;;;;;;;;;;5073058;28;19924;-63
2022/08/02 05:06:08;;;;;;;;;;;;;;;;;;5073603;28;20408;-66
2022/08/02 05:08:36;;;;;;;;;;;;;;;;;;5072200;28;20435;-65
2022/08/02 05:11:02;;;;;;;;;;;;;;;;;;5071245;28;19947;-64
2022/08/02 05:13:29;;;;;;;;;;;;;;;;;;5053722;28;20298;-64
2022/08/02 05:15:57;;;;;;;;;;;;;;;;;;5053535;28;19928;-64
2022/08/02 05:18:24;;;;;;;;;;;;;;;;;;5070435;28;19932;-65
2022/08/02 05:20:50;;;;;;;;;;;;;;;;;;5053347;28;19928;-63
2022/08/02 05:23:17;;;;;;;;;;;;;;;;;;5071736;28;20375;-65
2022/08/02 05:25:45;;;;;;;;;;;;;;;;;;5073321;28;19928;-63
2022/08/02 05:28:11;;;;;;;;;;;;;;;;;;5072973;28;20332;-64
2022/08/02 05:30:38;;;;;;;;;;;;;;;;;;5073011;28;19942;-63
2022/08/02 05:33:04;;;;;;;;;;;;;;;;;;5073022;28;19925;-64
2022/08/02 05:35:31;;;;;;;;;;;;;;;;;;5073154;28;19929;-64
2022/08/02 05:37:57;;;;;;;;;;;;;;;;;;5073253;28;19928;-65
2022/08/02 05:40:24;;;;;;;;;;;;;;;;;;5072763;28;19925;-64
2022/08/02 05:42:52;;;;;;;;;;;;;;;;;;5072937;28;19932;-63
2022/08/02 05:45:18;;;;;;;;;;;;;;;;;;5072950;28;19929;-63
2022/08/02 05:47:45;;;;;;;;;;;;;;;;;;5072795;28;19935;-63
2022/08/02 05:50:11;;;;;;;;;;;;;;;;;;5072206;28;19924;-62
2022/08/02 05:52:45;;;;;;;;;;;;;;;;;;5073042;28;19975;-64
2022/08/02 05:55:13;;;;;;;;;;;;;;;;;;5072843;28;19931;-64
2022/08/02 05:57:42;;;;;;;;;;;;;;;;;;5072927;28;19924;-63
2022/08/02 06:00:12;;;;;;;;;;;;;;;;;;5072349;28;19925;-63
2022/08/02 06:02:44;;;;;;;;;;;;;;;;;;5073210;28;20637;-65
2022/08/02 06:05:12;;;;;;;;;;;;;;;;;;5072635;28;19928;-65
2022/08/02 06:07:40;;;;;;;;;;;;;;;;;;5073034;28;19928;-63
2022/08/02 06:10:08;;;;;;;;;;;;;;;;;;5072162;28;19986;-63
2022/08/02 06:12:39;;;;;;;;;;;;;;;;;;5072667;28;19932;-63
2022/08/02 06:15:06;;;;;;;;;;;;;;;;;;5072386;28;20242;-64
2022/08/02 06:17:34;;;;;;;;;;;;;;;;;;5072588;28;19931;-63
2022/08/02 06:20:01;;;;;;;;;;;;;;;;;;5072094;28;19929;-64
2022/08/02 06:22:28;;;;;;;;;;;;;;;;;;5072392;28;19928;-63
2022/08/02 06:24:55;;;;;;;;;;;;;;;;;;5072271;28;19931;-63
2022/08/02 06:27:21;;;;;;;;;;;;;;;;;;5072361;28;19981;-64
2022/08/02 06:29:48;;;;;;;;;;;;;;;;;;5072043;28;19924;-64
2022/08/02 06:32:17;;;;;;;;;;;;;;;;;;5072188;28;19928;-64
2022/08/02 06:34:45;;;;;;;;;;;;;;;;;;5072243;28;19986;-63
2022/08/02 06:37:14;;;;;;;;;;;;;;;;;;5072261;28;20015;-65
2022/08/02 06:39:44;;;;;;;;;;;;;;;;;;5071880;28;19928;-63
2022/08/02 06:42:12;;;;;;;;;;;;;;;;;;5072125;28;19924;-64
2022/08/02 06:44:39;;;;;;;;;;;;;;;;;;5072264;28;20381;-63
2022/08/02 06:47:05;;;;;;;;;;;;;;;;;;5068361;28;19932;-63
2022/08/02 06:49:32;;;;;;;;;;;;;;;;;;5051995;28;19929;-64
2022/08/02 06:52:00;;;;;;;;;;;;;;;;;;5051904;28;19931;-64
2022/08/02 06:54:27;;;;;;;;;;;;;;;;;;5052071;28;19925;-63
2022/08/02 06:56:53;;;;;;;;;;;;;;;;;;5141509;22;19927;-67
2022/08/02 06:59:20;;;;;;;;;;;;;;;;;;5092529;28;19928;-68
2022/08/02 07:01:46;;;;;;;;;;;;;;;;;;5075993;28;19931;-68
2022/08/02 07:04:13;;;;;;;;;;;;;;;;;;5076477;28;19947;-67
2022/08/02 07:06:40;;;;;;;;;;;;;;;;;;5076200;28;19994;-66
2022/08/02 07:09:08;;;;;;;;;;;;;;;;;;5076192;28;19940;-66
2022/08/02 07:11:34;;;;;;;;;;;;;;;;;;5076131;28;19924;-67
2022/08/02 07:14:01;;;;;;;;;;;;;;;;;;5076044;28;19977;-65
2022/08/02 07:16:27;;;;;;;;;;;;;;;;;;5075714;28;19924;-66
2022/08/02 07:18:54;;;;;;;;;;;;;;;;;;5075922;28;20270;-67
2022/08/02 07:21:20;;;;;;;;;;;;;;;;;;5075551;28;19928;-67
2022/08/02 07:23:47;;;;;;;;;;;;;;;;;;5075924;28;19924;-65
2022/08/02 07:26:15;;;;;;;;;;;;;;;;;;5075558;28;19931;-67
2022/08/02 07:28:42;;;;;;;;;;;;;;;;;;5075963;28;20042;-66
2022/08/02 07:31:08;;;;;;;;;;;;;;;;;;5075492;28;19924;-67
2022/08/02 07:33:35;;;;;;;;;;;;;;;;;;5075494;28;19928;-67
2022/08/02 07:36:02;;;;;;;;;;;;;;;;;;5075367;28;20347;-67
2022/08/02 07:38:29;;;;;;;;;;;;;;;;;;5076479;28;20301;-67
2022/08/02 07:40:55;;;;;;;;;;;;;;;;;;5075524;28;19928;-67
2022/08/02 07:43:23;;;;;;;;;;;;;;;;;;5076193;28;19924;-67
2022/08/02 07:45:50;;;;;;;;;;;;;;;;;;5075316;28;19932;-67
2022/08/02 07:48:17;;;;;;;;;;;;;;;;;;5076415;28;20388;-66
2022/08/02 07:50:45;;;;;;;;;;;;;;;;;;5075139;28;19936;-68
2022/08/02 07:53:12;;;;;;;;;;;;;;;;;;5075590;28;20415;-67
2022/08/02 07:55:38;;;;;;;;;;;;;;;;;;5076019;28;20347;-67
2022/08/02 07:58:05;;;;;;;;;;;;;;;;;;5075346;28;19935;-67
2022/08/02 08:00:33;;;;;;;;;;;;;;;;;;5057972;28;19929;-65
2022/08/02 08:03:00;;;;;;;;;;;;;;;;;;5051685;28;19925;-66
2022/08/02 08:05:27;;;;;;;;;;;;;;;;;;5053216;28;20444;-66
2022/08/02 08:07:53;;;;;;;;;;;;;;;;;;5052776;28;19925;-66
2022/08/02 08:10:20;;;;;;;;;;;;;;;;;;5053097;28;19924;-67
2022/08/02 08:12:46;;;;;;;;;;;;;;;;;;5065732;28;19925;-69
2022/08/02 08:15:13;;;;;;;;;;;;;;;;;;5052942;28;20373;-66
2022/08/02 08:17:41;;;;;;;;;;;;;;;;;;5052484;28;20382;-67
2022/08/02 08:20:08;;;;;;;;;;;;;;;;;;5052279;28;19929;-67
2022/08/02 08:22:34;;;;;;;;;;;;;;;;;;5052199;28;19979;-66
2022/08/02 08:25:01;;;;;;;;;;;;;;;;;;5052256;28;19932;-67
2022/08/02 08:27:28;;;;;;;;;;;;;;;;;;5052567;28;19925;-67
2022/08/02 08:29:54;;;;;;;;;;;;;;;;;;5052206;28;19925;-68
2022/08/02 08:32:21;;;;;;;;;;;;;;;;;;5050681;28;19932;-68
2022/08/02 08:34:50;;;;;;;;;;;;;;;;;;5051960;28;19925;-67
2022/08/02 08:37:16;;;;;;;;;;;;;;;;;;5051824;28;19935;-67
2022/08/02 08:39:43;;;;;;;;;;;;;;;;;;5051840;28;19952;-67
2022/08/02 08:42:09;;;;;;;;;;;;;;;;;;5052201;28;19928;-66
2022/08/02 08:44:36;;;;;;;;;;;;;;;;;;5051820;28;19959;-65
2022/08/02 08:47:03;;;;;;;;;;;;;;;;;;5051881;28;20023;-67
2022/08/02 08:49:31;;;;;;;;;;;;;;;;;;5051149;28;19925;-66
2022/08/02 08:52:02;;;;;;;;;;;;;;;;;;5051757;28;19936;-66
2022/08/02 08:54:29;;;;;;;;;;;;;;;;;;5051702;28;20381;-66
2022/08/02 08:56:56;;;;;;;;;;;;;;;;;;5052207;28;19929;-66
2022/08/02 08:59:23;;;;;;;;;;;;;;;;;;5052081;28;20334;-66
2022/08/02 09:01:50;;;;;;;;;;;;;;;;;;5051491;28;19991;-65
2022/08/02 09:04:16;;;;;;;;;;;;;;;;;;5051635;28;19929;-67
2022/08/02 09:06:43;;;;;;;;;;;;;;;;;;5051879;28;19932;-66
2022/08/02 09:09:11;;;;;;;;;;;;;;;;;;5051406;28;19971;-66
2022/08/02 09:11:37;;;;;;;;;;;;;;;;;;5051621;28;19924;-66
2022/08/02 09:14:04;;;;;;;;;;;;;;;;;;5051738;28;20322;-67
2022/08/02 09:16:32;;;;;;;;;;;;;;;;;;5052466;28;19929;-68
2022/08/02 09:18:59;;;;;;;;;;;;;;;;;;5051614;28;19925;-67
2022/08/02 09:21:34;;;;;;;;;;;;;;;;;;5051630;28;19932;-65
2022/08/02 09:24:00;;;;;;;;;;;;;;;;;;5050914;28;19924;-68
2022/08/02 09:26:28;;;;;;;;;;;;;;;;;;5051201;28;20382;-66
2022/08/02 09:28:59;;;;;;;;;;;;;;;;;;5051352;28;19925;-66
2022/08/02 09:31:26;;;;;;;;;;;;;;;;;;5051250;28;19936;-66
2022/08/02 09:33:53;;;;;;;;;;;;;;;;;;5051328;28;19990;-67
2022/08/02 09:36:21;;;;;;;;;;;;;;;;;;5051354;28;20381;-66
2022/08/02 09:38:54;;;;;;;;;;;;;;;;;;5050758;28;19932;-66
2022/08/02 09:41:22;;;;;;;;;;;;;;;;;;5050786;28;19925;-67
2022/08/02 09:43:50;;;;;;;;;;;;;;;;;;5051036;28;19924;-66
2022/08/02 09:46:17;;;;;;;;;;;;;;;;;;5050737;28;20043;-66
2022/08/02 09:48:51;;;;;;;;;;;;;;;;;;5050927;28;19931;-67
2022/08/02 09:51:19;;;;;;;;;;;;;;;;;;5050721;28;19932;-67
2022/08/02 09:53:46;;;;;;;;;;;;;;;;;;5051068;28;20326;-66
2022/08/02 09:56:13;;;;;;;;;;;;;;;;;;5050892;28;19978;-67
2022/08/02 09:58:40;;;;;;;;;;;;;;;;;;5050976;28;19932;-67
2022/08/02 10:01:08;;;;;;;;;;;;;;;;;;5062073;28;19935;-67
2022/08/02 10:03:35;;;;;;;;;;;;;;;;;;5070438;28;19975;-67
2022/08/02 10:06:07;;;;;;;;;;;;;;;;;;5070588;28;19929;-66
2022/08/02 10:08:33;;;;;;;;;;;;;;;;;;5070669;28;19929;-67
2022/08/02 10:11:00;;;;;;;;;;;;;;;;;;5070656;28;19929;-67
2022/08/02 10:13:28;;;;;;;;;;;;;;;;;;5070700;28;20385;-66
2022/08/02 10:15:55;;;;;;;;;;;;;;;;;;5070570;28;20019;-67
2022/08/02 10:18:23;;;;;;;;;;;;;;;;;;5069966;28;19958;-72
2022/08/02 10:20:50;;;;;;;;;;;;;;;;;;5070473;28;19935;-65
2022/08/02 10:23:19;;;;;;;;;;;;;;;;;;5070115;28;19990;-66
2022/08/02 10:25:48;;;;;;;;;;;;;;;;;;5070312;28;19929;-66
2022/08/02 10:28:15;;;;;;;;;;;;;;;;;;5063819;28;19929;-66
2022/08/02 10:30:43;;;;;;;;;;;;;;;;;;5050112;28;19925;-66
2022/08/02 10:33:10;;;;;;;;;;;;;;;;;;5063107;28;19936;-67
2022/08/02 10:35:40;;;;;;;;;;;;;;;;;;5050062;28;19929;-66
2022/08/02 10:38:08;;;;;;;;;;;;;;;;;;5049758;28;20301;-66
2022/08/02 10:40:45;;;;;;;;;;;;;;;;;;5036068;28;19931;-68
2022/08/02 10:43:12;;;;;;;;;;;;;;;;;;5061040;28;19928;-63
2022/08/02 10:45:39;;;;;;;;;;;;;;;;;;5070746;28;20369;-65
2022/08/02 10:48:08;;;;;;;;;;;;;;;;;;5057387;28;19970;-65
2022/08/02 10:50:55;;;;;;;;;;;;;;;;;;5050274;28;19925;-66
2022/08/02 10:53:25;;;;;;;;;;;;;;;;;;5050462;28;19933;-66
2022/08/02 10:55:52;;;;;;;;;;;;;;;;;;5050371;28;19928;-68
2022/08/02 10:58:20;;;;;;;;;;;;;;;;;;5050659;28;19925;-66
2022/08/02 11:00:47;;;;;;;;;;;;;;;;;;5050524;28;19928;-65
2022/08/02 11:03:32;;;;;;;;;;;;;;;;;;5049360;28;19924;-67
2022/08/02 11:06:04;;;;;;;;;;;;;;;;;;5061510;28;20344;-65
2022/08/02 11:08:31;;;;;;;;;;;;;;;;;;5070103;28;19976;-66
2022/08/02 11:11:00;;;;;;;;;;;;;;;;;;5070608;28;19924;-66
2022/08/02 11:13:28;;;;;;;;;;;;;;;;;;5056983;28;19929;-66
2022/08/02 11:16:01;;;;;;;;;;;;;;;;;;5050344;28;20270;-66
2022/08/02 11:18:46;;;;;;;;;;;;;;;;;;5050677;28;19990;-66
2022/08/02 11:21:24;;;;;;;;;;;;;;;;;;5050390;28;19925;-67
2022/08/02 11:23:51;;;;;;;;;;;;;;;;;;5049983;28;19925;-65
2022/08/02 11:26:36;;;;;;;;;;;;;;;;;;5050537;28;19952;-66
2022/08/02 11:29:04;;;;;;;;;;;;;;;;;;5050279;28;19924;-66
2022/08/02 11:31:38;;;;;;;;;;;;;;;;;;5049233;28;19937;-65
2022/08/02 11:34:05;;;;;;;;;;;;;;;;;;5049936;28;19925;-66
2022/08/02 11:36:33;;;;;;;;;;;;;;;;;;5050007;28;19924;-65
2022/08/02 11:39:10;;;;;;;;;;;;;;;;;;5049953;28;19932;-67
2022/08/02 11:41:37;;;;;;;;;;;;;;;;;;5050064;28;19928;-66
2022/08/02 11:44:03;;;;;;;;;;;;;;;;;;5050083;28;21001;-65
2022/08/02 11:46:30;;;;;;;;;;;;;;;;;;5050080;28;19932;-65
2022/08/02 11:48:57;;;;;;;;;;;;;;;;;;5052895;28;19932;-66
2022/08/02 11:51:23;;;;;;;;;;;;;;;;;;5053665;28;19925;-66
2022/08/02 11:53:52;;;;;;;;;;;;;;;;;;5055439;28;19928;-67
2022/08/02 11:56:19;;;;;;;;;;;;;;;;;;5053380;28;19932;-68
2022/08/02 11:59:03;;;;;;;;;;;;;;;;;;5053674;28;19931;-66
2022/08/02 12:01:30;;;;;;;;;;;;;;;;;;5061457;28;19936;-66
2022/08/02 12:03:59;;;;;;;;;;;;;;;;;;5071930;28;20041;-65
2022/08/02 12:06:27;;;;;;;;;;;;;;;;;;5053088;28;19925;-66
2022/08/02 12:08:59;;;;;;;;;;;;;;;;;;5052712;28;19932;-66
2022/08/02 12:11:26;;;;;;;;;;;;;;;;;;5053504;28;19925;-66
2022/08/02 12:13:53;;;;;;;;;;;;;;;;;;5053091;28;19925;-67
2022/08/02 12:19:18;;;;;;;;;;;;;;;;;;5052901;28;19931;-66
2022/08/02 12:21:45;;;;;;;;;;;;;;;;;;5053356;28;20381;-66
2022/08/02 12:24:13;;;;;;;;;;;;;;;;;;5052910;28;19978;-66
2022/08/02 12:26:43;;;;;;;;;;;;;;;;;;5053050;28;20378;-66
2022/08/02 12:29:10;;;;;;;;;;;;;;;;;;5052984;28;20198;-66
2022/08/02 12:31:40;;;;;;;;;;;;;;;;;;5052902;28;19970;-67
2022/08/02 12:34:13;;;;;;;;;;;;;;;;;;5052710;28;19929;-65
2022/08/02 12:36:40;;;;;;;;;;;;;;;;;;5052955;28;20103;-68
2022/08/02 12:39:11;;;;;;;;;;;;;;;;;;5052788;28;19925;-66
2022/08/02 12:41:39;;;;;;;;;;;;;;;;;;5052624;28;19998;-67
2022/08/02 12:44:13;;;;;;;;;;;;;;;;;;5052435;28;19924;-66
2022/08/02 12:46:40;;;;;;;;;;;;;;;;;;5052587;28;19932;-66
2022/08/02 12:49:14;;;;;;;;;;;;;;;;;;5052361;28;19924;-66
2022/08/02 12:51:41;;;;;;;;;;;;;;;;;;5052397;28;20019;-65
2022/08/02 12:54:11;;;;;;;;;;;;;;;;;;5052409;28;20593;-66
2022/08/02 12:56:39;;;;;;;;;;;;;;;;;;5083432;22;19973;-67
2022/08/02 12:59:06;;;;;;;;;;;;;;;;;;5112232;28;20018;-67
2022/08/02 13:01:33;;;;;;;;;;;;;;;;;;5097594;28;19928;-64
2022/08/02 13:03:59;;;;;;;;;;;;;;;;;;5092732;28;19931;-65
2022/08/02 13:06:26;;;;;;;;;;;;;;;;;;5092423;28;19924;-64
2022/08/02 13:08:53;;;;;;;;;;;;;;;;;;5092402;28;20550;-66
2022/08/02 13:11:20;;;;;;;;;;;;;;;;;;5092513;28;19924;-66
2022/08/02 13:13:48;;;;;;;;;;;;;;;;;;5092165;28;19926;-65
2022/08/02 13:16:15;;;;;;;;;;;;;;;;;;5092224;28;19931;-66
2022/08/02 13:18:41;;;;;;;;;;;;;;;;;;5092535;28;19970;-65
2022/08/02 13:21:09;;;;;;;;;;;;;;;;;;5092470;28;20014;-65
2022/08/02 13:23:36;;;;;;;;;;;;;;;;;;5092300;28;19931;-66
2022/08/02 13:26:03;;;;;;;;;;;;;;;;;;5091888;28;20011;-66
2022/08/02 13:28:29;;;;;;;;;;;;;;;;;;5092131;28;19924;-66
2022/08/02 13:30:57;;;;;;;;;;;;;;;;;;5091880;28;19977;-66
2022/08/02 13:33:24;;;;;;;;;;;;;;;;;;5092371;28;19971;-65
2022/08/02 13:35:51;;;;;;;;;;;;;;;;;;5092181;28;20320;-66
2022/08/02 13:38:17;;;;;;;;;;;;;;;;;;5092034;28;19924;-65
2022/08/02 13:43:24;;;;;;;;;;;;;;;;;;5090912;28;19930;-65
2022/08/02 13:45:51;;;;;;;;;;;;;;;;;;5092491;28;20547;-65
2022/08/02 13:48:19;;;;;;;;;;;;;;;;;;5091976;28;20273;-65
2022/08/02 13:50:46;;;;;;;;;;;;;;;;;;5091278;28;20027;-64
2022/08/02 13:53:12;;;;;;;;;;;;;;;;;;5092155;28;19934;-65
2022/08/02 13:55:39;;;;;;;;;;;;;;;;;;5091466;28;20496;-65
2022/08/02 13:58:05;;;;;;;;;;;;;;;;;;5091520;28;19991;-67
2022/08/02 14:00:32;;;;;;;;;;;;;;;;;;5084376;28;19978;-65
2022/08/02 14:02:59;;;;;;;;;;;;;;;;;;5071391;28;20376;-65
2022/08/02 14:05:29;;;;;;;;;;;;;;;;;;5071250;28;19924;-65
2022/08/02 14:07:56;;;;;;;;;;;;;;;;;;5071112;28;20023;-66
2022/08/02 14:10:24;;;;;;;;;;;;;;;;;;5070574;28;20292;-66
2022/08/02 14:12:51;;;;;;;;;;;;;;;;;;5071114;28;19929;-65
2022/08/02 14:15:17;;;;;;;;;;;;;;;;;;5071165;28;19928;-66
2022/08/02 14:17:44;;;;;;;;;;;;;;;;;;5071505;28;19928;-66
2022/08/02 14:20:11;;;;;;;;;;;;;;;;;;5070553;28;19924;-66
2022/08/02 14:22:39;;;;;;;;;;;;;;;;;;5071054;28;20419;-66
2022/08/02 14:25:06;;;;;;;;;;;;;;;;;;5071090;28;19948;-65
2022/08/02 14:27:33;;;;;;;;;;;;;;;;;;5070754;28;20015;-65
2022/08/02 14:29:59;;;;;;;;;;;;;;;;;;5070651;28;19931;-65
2022/08/02 14:32:26;;;;;;;;;;;;;;;;;;5071135;28;19970;-66
2022/08/02 14:34:53;;;;;;;;;;;;;;;;;;5070933;28;19982;-64
2022/08/02 14:37:19;;;;;;;;;;;;;;;;;;5070713;28;19928;-65
2022/08/02 14:39:47;;;;;;;;;;;;;;;;;;5070734;28;19925;-66
2022/08/02 14:42:14;;;;;;;;;;;;;;;;;;5070669;28;19993;-65
2022/08/02 14:44:40;;;;;;;;;;;;;;;;;;5070866;28;20335;-65
2022/08/02 14:47:07;;;;;;;;;;;;;;;;;;5070720;28;20347;-65
2022/08/02 14:49:33;;;;;;;;;;;;;;;;;;5070396;28;19925;-65
2022/08/02 14:52:00;;;;;;;;;;;;;;;;;;5071198;28;20347;-65
2022/08/02 14:54:28;;;;;;;;;;;;;;;;;;5070956;28;19948;-65
2022/08/02 14:56:56;;;;;;;;;;;;;;;;;;5070659;28;19935;-65
2022/08/02 14:59:23;;;;;;;;;;;;;;;;;;5071051;28;20272;-65
2022/08/02 15:01:49;;;;;;;;;;;;;;;;;;5087734;28;20300;-66
2022/08/02 15:04:16;;;;;;;;;;;;;;;;;;5090823;28;19924;-65
2022/08/02 15:06:43;;;;;;;;;;;;;;;;;;5091258;28;20285;-65
2022/08/02 15:09:09;;;;;;;;;;;;;;;;;;5090499;28;20293;-65
2022/08/02 15:11:37;;;;;;;;;;;;;;;;;;5090641;28;19924;-65
2022/08/02 15:14:05;;;;;;;;;;;;;;;;;;5090905;28;19946;-65
2022/08/02 15:16:34;;;;;;;;;;;;;;;;;;5090377;28;19928;-65
2022/08/02 15:19:00;;;;;;;;;;;;;;;;;;5090580;28;20280;-66
2022/08/02 15:21:27;;;;;;;;;;;;;;;;;;5090379;28;19924;-65
2022/08/02 15:23:54;;;;;;;;;;;;;;;;;;5093153;28;19928;-65
2022/08/02 15:26:20;;;;;;;;;;;;;;;;;;5094332;28;19985;-65
2022/08/02 15:28:47;;;;;;;;;;;;;;;;;;5094476;28;19924;-65
2022/08/02 15:31:15;;;;;;;;;;;;;;;;;;5094212;28;20400;-65
2022/08/02 15:33:43;;;;;;;;;;;;;;;;;;5095043;28;19924;-65
2022/08/02 15:36:09;;;;;;;;;;;;;;;;;;5095004;28;19924;-65
2022/08/02 15:38:36;;;;;;;;;;;;;;;;;;5094428;28;19932;-65
2022/08/02 15:41:03;;;;;;;;;;;;;;;;;;5094127;28;19932;-64
2022/08/02 15:43:30;;;;;;;;;;;;;;;;;;5094159;28;20006;-65
2022/08/02 15:45:56;;;;;;;;;;;;;;;;;;5094143;28;19932;-65
2022/08/02 15:48:24;;;;;;;;;;;;;;;;;;5094144;28;19985;-65
2022/08/02 15:50:51;;;;;;;;;;;;;;;;;;5093746;28;19946;-65
2022/08/02 15:53:17;;;;;;;;;;;;;;;;;;5094027;28;19931;-65
2022/08/02 15:55:44;;;;;;;;;;;;;;;;;;5094029;28;19928;-65
2022/08/02 15:58:10;;;;;;;;;;;;;;;;;;5093979;28;19935;-65
2022/08/02 16:00:37;;;;;;;;;;;;;;;;;;5086267;28;19924;-65
2022/08/02 16:03:04;;;;;;;;;;;;;;;;;;5073135;28;19932;-65
2022/08/02 16:05:31;;;;;;;;;;;;;;;;;;5073330;28;19924;-65
2022/08/02 16:07:58;;;;;;;;;;;;;;;;;;5073046;28;20381;-65
2022/08/02 16:10:25;;;;;;;;;;;;;;;;;;5072945;28;19924;-63
2022/08/02 16:12:51;;;;;;;;;;;;;;;;;;5072937;28;19974;-65
2022/08/02 16:15:18;;;;;;;;;;;;;;;;;;5073406;28;20011;-65
2022/08/02 16:17:45;;;;;;;;;;;;;;;;;;5073271;28;19970;-66
2022/08/02 16:20:12;;;;;;;;;;;;;;;;;;5072610;28;20401;-66
2022/08/02 16:22:40;;;;;;;;;;;;;;;;;;5072898;28;20318;-66
2022/08/02 16:25:08;;;;;;;;;;;;;;;;;;5073086;28;19936;-65
2022/08/02 16:27:35;;;;;;;;;;;;;;;;;;5073272;28;19975;-65
2022/08/02 16:30:01;;;;;;;;;;;;;;;;;;5072742;28;19925;-65
2022/08/02 16:32:28;;;;;;;;;;;;;;;;;;5072971;28;19925;-65
2022/08/02 16:34:55;;;;;;;;;;;;;;;;;;5072819;28;19924;-65
2022/08/02 16:37:21;;;;;;;;;;;;;;;;;;5072668;28;20320;-65
2022/08/02 16:39:49;;;;;;;;;;;;;;;;;;5072844;28;19970;-65
2022/08/02 16:42:16;;;;;;;;;;;;;;;;;;5072637;28;20168;-65
2022/08/02 16:44:44;;;;;;;;;;;;;;;;;;5072086;28;20451;-65
2022/08/02 16:47:12;;;;;;;;;;;;;;;;;;5072496;28;19928;-65
2022/08/02 16:49:38;;;;;;;;;;;;;;;;;;5072185;28;19929;-64
2022/08/02 16:52:05;;;;;;;;;;;;;;;;;;5072464;28;20377;-65
2022/08/02 16:54:32;;;;;;;;;;;;;;;;;;5072469;28;19928;-65
2022/08/02 16:57:02;;;;;;;;;;;;;;;;;;5072652;28;19932;-65